Time;durP1;ratioP1;P1;durP2;ratioP2;P2;SDS_P1;SDS_P2;PMS_P1;PMS_P2;Temp;Humidity;BMP_temperature;BMP_pressure;BME280_temperature;BME280_humidity;BME280_pressure;Samples;Min_cycle;Max_cycle;Signal;HPM_P1;HPM_P2
2021/09/13 00:02:28;;;;;;;7.43;6.07;;;17.90;99.90;;;;;;5055053;28;20525;-50
2021/09/13 00:04:56;;;;;;;9.67;6.83;;;17.80;99.90;;;;;;5055014;28;20824;-52
2021/09/13 00:07:23;;;;;;;11.43;7.43;;;17.80;99.90;;;;;;5054909;28;20489;-47
2021/09/13 00:09:50;;;;;;;12.10;6.87;;;17.80;99.90;;;;;;5054861;28;20897;-52
2021/09/13 00:12:17;;;;;;;8.67;7.23;;;17.80;99.90;;;;;;5054894;28;20544;-47
2021/09/13 00:14:44;;;;;;;8.63;6.70;;;17.70;99.90;;;;;;5054510;28;20517;-48
2021/09/13 00:17:11;;;;;;;11.63;7.93;;;17.70;99.90;;;;;;5054662;28;20508;-49
2021/09/13 00:19:38;;;;;;;9.90;8.30;;;17.60;99.90;;;;;;5054503;28;20509;-52
2021/09/13 00:22:06;;;;;;;9.13;6.63;;;17.60;99.90;;;;;;5054663;28;20462;-52
2021/09/13 00:24:33;;;;;;;10.17;7.20;;;17.60;99.90;;;;;;5054378;28;20904;-53
2021/09/13 00:27:00;;;;;;;8.23;7.43;;;17.50;99.90;;;;;;5054531;28;20521;-52
2021/09/13 00:29:26;;;;;;;9.43;7.40;;;17.50;99.90;;;;;;5054616;28;20451;-52
2021/09/13 00:31:53;;;;;;;9.30;7.37;;;17.40;99.90;;;;;;5054331;28;20487;-51
2021/09/13 00:34:20;;;;;;;8.83;7.70;;;17.40;99.90;;;;;;5054527;28;20823;-54
2021/09/13 00:36:46;;;;;;;9.90;7.73;;;17.30;99.90;;;;;;5054264;28;20513;-49
2021/09/13 00:39:14;;;;;;;12.93;7.93;;;17.30;99.90;;;;;;5054442;28;20451;-50
2021/09/13 00:41:41;;;;;;;10.20;7.23;;;17.30;99.90;;;;;;5054042;28;20501;-48
2021/09/13 00:44:07;;;;;;;12.50;8.20;;;17.30;99.90;;;;;;5054063;28;20467;-47
2021/09/13 00:46:34;;;;;;;9.30;7.10;;;17.30;99.90;;;;;;5054330;28;20884;-54
2021/09/13 00:49:01;;;;;;;10.50;8.27;;;17.20;99.90;;;;;;5054361;28;20511;-50
2021/09/13 00:51:27;;;;;;;16.53;8.23;;;17.20;99.90;;;;;;5053849;28;20483;-50
2021/09/13 00:53:55;;;;;;;9.60;8.17;;;17.20;99.90;;;;;;5053870;28;20904;-48
2021/09/13 00:56:23;;;;;;;8.93;7.33;;;17.10;99.90;;;;;;5054056;28;20456;-49
2021/09/13 00:58:53;;;;;;;8.03;7.23;;;17.10;99.90;;;;;;5053943;28;20451;-50
2021/09/13 01:01:19;;;;;;;10.13;7.83;;;17.10;99.90;;;;;;5053758;28;20897;-53
2021/09/13 01:03:46;;;;;;;9.10;7.63;;;17.10;99.90;;;;;;5054083;28;20905;-51
2021/09/13 01:06:13;;;;;;;10.27;7.73;;;17.10;99.90;;;;;;5053636;28;20451;-53
2021/09/13 01:08:39;;;;;;;11.90;8.00;;;17.10;99.90;;;;;;5053666;28;20451;-50
2021/09/13 01:11:08;;;;;;;9.83;8.00;;;17.10;99.90;;;;;;5053941;28;20470;-50
2021/09/13 01:13:36;;;;;;;9.30;7.90;;;17.10;99.90;;;;;;5053747;28;20443;-53
2021/09/13 01:16:04;;;;;;;10.37;8.10;;;17.10;99.90;;;;;;5054028;28;20451;-53
2021/09/13 01:18:30;;;;;;;9.17;7.43;;;17.00;99.90;;;;;;5053700;28;20463;-51
2021/09/13 01:20:57;;;;;;;10.87;8.30;;;17.00;99.90;;;;;;5053926;28;20443;-51
2021/09/13 01:23:26;;;;;;;8.57;7.67;;;17.00;99.90;;;;;;5053533;28;20447;-54
2021/09/13 01:25:53;;;;;;;9.20;7.43;;;17.00;99.90;;;;;;5053469;28;20626;-52
2021/09/13 01:28:20;;;;;;;11.70;8.03;;;16.90;99.90;;;;;;5056332;28;20896;-54
2021/09/13 01:30:47;;;;;;;15.77;7.50;;;16.90;99.90;;;;;;5057790;28;20977;-49
2021/09/13 01:33:14;;;;;;;13.53;8.17;;;16.90;99.90;;;;;;5057564;28;20525;-51
2021/09/13 01:35:40;;;;;;;12.63;8.20;;;16.90;99.90;;;;;;5057936;28;20445;-55
2021/09/13 01:38:07;;;;;;;8.97;7.70;;;16.80;99.90;;;;;;5057949;28;20517;-50
2021/09/13 01:40:35;;;;;;;13.63;7.87;;;16.80;99.90;;;;;;5057790;28;20439;-48
2021/09/13 01:43:04;;;;;;;11.03;8.40;;;16.80;99.90;;;;;;5057589;28;20952;-50
2021/09/13 01:45:31;;;;;;;11.30;8.83;;;16.70;99.90;;;;;;5057502;28;20478;-50
2021/09/13 01:47:58;;;;;;;8.20;6.90;;;16.70;99.90;;;;;;5057350;28;20439;-48
2021/09/13 01:50:25;;;;;;;8.60;7.70;;;16.70;99.90;;;;;;5057248;28;20452;-49
2021/09/13 01:52:51;;;;;;;9.20;8.10;;;16.60;99.90;;;;;;5057481;28;20875;-54
2021/09/13 01:55:18;;;;;;;15.97;9.27;;;16.60;99.90;;;;;;5057372;28;20477;-52
2021/09/13 01:57:46;;;;;;;10.60;8.53;;;16.60;99.90;;;;;;5057509;28;20497;-52
2021/09/13 02:00:15;;;;;;;10.43;8.07;;;16.60;99.90;;;;;;5057144;28;20682;-54
2021/09/13 02:02:42;;;;;;;11.53;8.10;;;16.60;99.90;;;;;;5057371;28;20439;-48
2021/09/13 02:05:09;;;;;;;10.67;8.30;;;16.60;99.90;;;;;;5057387;28;20516;-53
2021/09/13 02:07:36;;;;;;;12.53;9.57;;;16.60;99.90;;;;;;5057125;28;20450;-54
2021/09/13 02:10:04;;;;;;;13.77;9.03;;;16.60;99.90;;;;;;5057207;28;20957;-50
2021/09/13 02:12:31;;;;;;;10.23;8.47;;;16.50;99.90;;;;;;5057005;28;20494;-52
2021/09/13 02:14:59;;;;;;;12.20;8.80;;;16.50;99.90;;;;;;5057255;28;20774;-50
2021/09/13 02:17:26;;;;;;;8.93;7.20;;;16.50;99.90;;;;;;5056778;28;20443;-52
2021/09/13 02:19:52;;;;;;;14.67;10.43;;;16.50;99.90;;;;;;5056825;28;20908;-54
2021/09/13 02:22:19;;;;;;;17.23;8.33;;;16.50;99.90;;;;;;5057048;28;20576;-52
2021/09/13 02:24:46;;;;;;;11.90;8.20;;;16.50;99.90;;;;;;5056676;28;20442;-51
2021/09/13 02:27:12;;;;;;;10.80;8.50;;;16.50;99.90;;;;;;5057206;28;20462;-52
2021/09/13 02:29:39;;;;;;;9.27;8.27;;;16.50;99.90;;;;;;5056619;28;20842;-49
2021/09/13 02:32:08;;;;;;;9.60;7.97;;;16.60;99.90;;;;;;5056783;28;20475;-52
2021/09/13 02:34:35;;;;;;;14.30;8.53;;;16.50;99.90;;;;;;5056841;28;20529;-52
2021/09/13 02:37:01;;;;;;;9.63;8.43;;;16.50;99.90;;;;;;5056888;28;20828;-51
2021/09/13 02:39:28;;;;;;;13.00;7.73;;;16.50;99.90;;;;;;5056838;28;20847;-53
2021/09/13 02:41:55;;;;;;;9.10;7.03;;;16.50;99.90;;;;;;5056433;28;20459;-54
2021/09/13 02:44:23;;;;;;;9.73;8.30;;;16.50;99.90;;;;;;5056291;28;20475;-54
2021/09/13 02:46:49;;;;;;;9.00;7.80;;;16.50;99.90;;;;;;5056816;28;20455;-51
2021/09/13 02:49:17;;;;;;;8.73;7.43;;;16.50;99.90;;;;;;5056537;28;20517;-51
2021/09/13 02:51:44;;;;;;;9.00;7.90;;;16.50;99.90;;;;;;5056431;28;20479;-49
2021/09/13 02:54:11;;;;;;;10.80;8.07;;;16.50;99.90;;;;;;5056306;28;20455;-49
2021/09/13 02:56:38;;;;;;;9.07;7.53;;;16.50;99.90;;;;;;5056089;28;20455;-54
2021/09/13 02:59:05;;;;;;;11.37;7.33;;;16.50;99.90;;;;;;5055995;28;20459;-51
2021/09/13 03:01:31;;;;;;;12.47;8.77;;;16.40;99.90;;;;;;5056445;28;20451;-54
2021/09/13 03:03:58;;;;;;;10.30;8.40;;;16.50;99.90;;;;;;5056247;28;20505;-53
2021/09/13 03:06:26;;;;;;;9.80;8.70;;;16.50;99.90;;;;;;5056239;28;20442;-49
2021/09/13 03:08:52;;;;;;;10.23;8.40;;;16.40;99.90;;;;;;5056009;28;20459;-54
2021/09/13 03:11:19;;;;;;;10.37;8.10;;;16.40;99.90;;;;;;5056022;28;20904;-52
2021/09/13 03:13:46;;;;;;;9.97;8.97;;;16.30;99.90;;;;;;5055866;28;20483;-52
2021/09/13 03:16:12;;;;;;;11.63;9.70;;;16.30;99.90;;;;;;5055725;28;20508;-49
2021/09/13 03:18:40;;;;;;;9.60;7.30;;;16.30;99.90;;;;;;5055766;28;20524;-52
2021/09/13 03:21:07;;;;;;;10.70;8.90;;;16.20;99.90;;;;;;5056181;28;20447;-53
2021/09/13 03:23:35;;;;;;;9.83;8.10;;;16.20;99.90;;;;;;5055553;28;20509;-54
2021/09/13 03:26:02;;;;;;;9.67;8.00;;;16.10;99.90;;;;;;5055843;28;20505;-52
2021/09/13 03:28:28;;;;;;;11.10;8.17;;;16.10;99.90;;;;;;5055741;28;20443;-48
2021/09/13 03:30:55;;;;;;;11.57;8.67;;;16.10;99.90;;;;;;5055206;28;20459;-48
2021/09/13 03:33:22;;;;;;;12.07;8.30;;;16.10;99.90;;;;;;5055394;28;20479;-51
2021/09/13 03:35:48;;;;;;;14.07;8.57;;;16.10;99.90;;;;;;5055405;28;20577;-47
2021/09/13 03:38:15;;;;;;;12.50;8.30;;;16.10;99.90;;;;;;5055254;28;21252;-53
2021/09/13 03:40:43;;;;;;;12.23;8.80;;;16.10;99.90;;;;;;5055232;28;20447;-53
2021/09/13 03:43:10;;;;;;;10.70;8.83;;;16.00;99.90;;;;;;5055406;28;20443;-50
2021/09/13 03:45:36;;;;;;;8.93;7.17;;;16.10;99.90;;;;;;5055325;28;20509;-52
2021/09/13 03:48:03;;;;;;;10.50;8.47;;;16.10;99.90;;;;;;5055011;28;20463;-50
2021/09/13 03:50:30;;;;;;;11.67;8.00;;;16.10;99.90;;;;;;5054867;28;20810;-51
2021/09/13 03:52:56;;;;;;;11.77;9.73;;;16.10;99.90;;;;;;5054983;28;20479;-50
2021/09/13 03:55:23;;;;;;;9.17;7.90;;;16.00;99.90;;;;;;5055174;28;20513;-52
2021/09/13 03:57:51;;;;;;;9.30;8.20;;;16.00;99.90;;;;;;5055266;28;20443;-49
2021/09/13 04:00:18;;;;;;;11.13;7.90;;;16.00;99.90;;;;;;5054913;28;20482;-46
2021/09/13 04:02:47;;;;;;;14.67;8.47;;;16.00;99.90;;;;;;5054997;28;20533;-51
2021/09/13 04:05:18;;;;;;;10.07;7.73;;;16.00;99.90;;;;;;5054883;28;20927;-49
2021/09/13 04:08:06;;;;;;;12.93;8.70;;;16.00;99.90;;;;;;5055081;28;21026;-49
2021/09/13 04:10:37;;;;;;;10.10;7.97;;;16.00;99.90;;;;;;5054799;28;20493;-51
2021/09/13 04:13:05;;;;;;;17.17;9.07;;;16.00;99.90;;;;;;5054652;28;20479;-51
2021/09/13 04:15:32;;;;;;;10.80;8.80;;;15.90;99.90;;;;;;5054916;28;20501;-54
2021/09/13 04:17:58;;;;;;;10.40;7.90;;;15.90;99.90;;;;;;5054558;28;20481;-52
2021/09/13 04:20:25;;;;;;;8.23;6.67;;;15.90;99.90;;;;;;5054732;28;20455;-52
2021/09/13 04:22:52;;;;;;;16.57;8.90;;;15.90;99.90;;;;;;5055271;28;20866;-49
2021/09/13 04:25:18;;;;;;;9.20;7.13;;;16.00;99.90;;;;;;5055380;28;20459;-50
2021/09/13 04:27:45;;;;;;;12.00;7.60;;;16.00;99.90;;;;;;5055298;28;20506;-51
2021/09/13 04:30:13;;;;;;;7.70;6.40;;;16.00;99.90;;;;;;5055243;28;20439;-51
2021/09/13 04:32:40;;;;;;;8.73;7.30;;;15.90;99.90;;;;;;5055234;28;20808;-51
2021/09/13 04:35:07;;;;;;;11.33;6.50;;;16.00;99.90;;;;;;5055073;28;20451;-53
2021/09/13 04:37:34;;;;;;;7.53;5.90;;;16.00;99.90;;;;;;5055021;28;20463;-52
2021/09/13 04:40:01;;;;;;;8.17;6.90;;;15.90;99.90;;;;;;5055343;28;20508;-53
2021/09/13 04:42:27;;;;;;;9.67;6.20;;;15.90;99.90;;;;;;5054900;28;20497;-55
2021/09/13 04:44:54;;;;;;;8.50;5.80;;;15.90;99.90;;;;;;5054850;28;20483;-49
2021/09/13 04:47:22;;;;;;;11.10;6.10;;;16.00;99.90;;;;;;5054554;28;20516;-51
2021/09/13 04:49:48;;;;;;;10.73;6.93;;;15.90;99.90;;;;;;5054211;28;20450;-55
2021/09/13 04:52:15;;;;;;;7.23;5.13;;;15.90;99.90;;;;;;5054258;28;21005;-51
2021/09/13 04:54:42;;;;;;;9.33;5.20;;;15.90;99.90;;;;;;5054102;28;20455;-49
2021/09/13 04:57:08;;;;;;;11.40;5.67;;;16.00;99.90;;;;;;5054227;28;20439;-53
2021/09/13 04:59:35;;;;;;;9.43;5.40;;;16.00;99.90;;;;;;5053914;28;20443;-53
2021/09/13 05:02:02;;;;;;;6.60;4.90;;;16.00;99.90;;;;;;5052967;28;20463;-54
2021/09/13 05:04:31;;;;;;;6.80;5.20;;;16.00;99.90;;;;;;5054896;28;20463;-47
2021/09/13 05:06:57;;;;;;;5.13;3.83;;;16.10;99.90;;;;;;5054267;28;20470;-48
2021/09/13 05:09:26;;;;;;;7.60;3.90;;;16.10;99.90;;;;;;5053846;28;21078;-50
2021/09/13 05:11:52;;;;;;;6.30;4.27;;;16.10;99.90;;;;;;5053738;28;20467;-48
2021/09/13 05:14:19;;;;;;;5.30;4.30;;;16.10;99.90;;;;;;5054122;28;20475;-52
2021/09/13 05:16:46;;;;;;;5.90;4.10;;;16.20;99.90;;;;;;5053745;28;20534;-49
2021/09/13 05:19:13;;;;;;;5.50;4.37;;;16.30;99.90;;;;;;5053808;28;20464;-51
2021/09/13 05:21:41;;;;;;;9.27;4.97;;;16.40;99.90;;;;;;5053693;28;20447;-52
2021/09/13 05:24:08;;;;;;;9.20;3.67;;;16.50;99.90;;;;;;5053817;28;20443;-46
2021/09/13 05:26:35;;;;;;;4.90;4.40;;;16.50;99.90;;;;;;5054132;28;20455;-43
2021/09/13 05:29:02;;;;;;;4.63;4.13;;;16.50;99.90;;;;;;5053859;28;20504;-46
2021/09/13 05:31:29;;;;;;;6.77;4.27;;;16.50;99.90;;;;;;5053821;28;20443;-43
2021/09/13 05:33:55;;;;;;;4.57;3.80;;;16.50;99.90;;;;;;5053592;28;20478;-43
2021/09/13 05:36:22;;;;;;;9.20;4.07;;;16.40;99.90;;;;;;5053542;28;20475;-50
2021/09/13 05:38:50;;;;;;;6.60;5.13;;;16.40;99.90;;;;;;5053539;28;20485;-44
2021/09/13 05:41:17;;;;;;;12.93;5.27;;;16.40;99.90;;;;;;5053957;28;20466;-49
2021/09/13 05:43:44;;;;;;;8.43;4.00;;;16.40;99.90;;;;;;5055009;28;20479;-49
2021/09/13 05:46:11;;;;;;;7.63;4.33;;;16.40;99.90;;;;;;5055180;28;20820;-45
2021/09/13 05:48:37;;;;;;;6.20;3.40;;;16.50;99.90;;;;;;5055216;28;20458;-49
2021/09/13 05:51:04;;;;;;;7.63;5.00;;;16.50;99.90;;;;;;5054936;28;20451;-46
2021/09/13 05:53:30;;;;;;;4.90;3.90;;;16.50;99.90;;;;;;5054737;28;20490;-45
2021/09/13 05:55:58;;;;;;;7.53;4.77;;;16.50;99.90;;;;;;5056252;28;20873;-49
2021/09/13 05:58:25;;;;;;;8.63;3.63;;;16.50;99.90;;;;;;5054469;28;20447;-51
2021/09/13 06:00:52;;;;;;;5.27;4.67;;;16.60;99.90;;;;;;5056246;28;21081;-46
2021/09/13 06:03:18;;;;;;;5.33;3.80;;;16.60;99.90;;;;;;5065537;28;20452;-45
2021/09/13 06:05:45;;;;;;;4.60;4.10;;;16.60;99.90;;;;;;5055379;28;20470;-43
2021/09/13 06:08:12;;;;;;;7.43;5.17;;;16.60;99.90;;;;;;5054812;28;20771;-51
2021/09/13 06:10:38;;;;;;;6.87;4.90;;;16.70;99.90;;;;;;5054697;28;20847;-45
2021/09/13 06:13:11;;;;;;;5.13;4.63;;;16.70;99.90;;;;;;5055281;28;20482;-52
2021/09/13 06:15:38;;;;;;;10.23;5.30;;;16.80;99.90;;;;;;5058757;28;20436;-49
2021/09/13 06:18:04;;;;;;;10.80;4.90;;;16.80;99.90;;;;;;5058565;28;20462;-48
2021/09/13 06:20:31;;;;;;;5.53;4.20;;;16.90;99.90;;;;;;5058433;28;20447;-46
2021/09/13 06:22:58;;;;;;;8.30;4.50;;;16.90;99.90;;;;;;5058230;28;20479;-47
2021/09/13 06:25:25;;;;;;;6.10;4.23;;;17.00;99.90;;;;;;5058506;28;20471;-51
2021/09/13 06:27:51;;;;;;;6.37;3.70;;;17.00;99.90;;;;;;5058321;28;20443;-47
2021/09/13 06:30:19;;;;;;;10.67;5.07;;;17.00;99.90;;;;;;5068589;28;20445;-43
2021/09/13 06:32:46;;;;;;;11.93;4.47;;;17.00;99.90;;;;;;5080419;28;20512;-51
2021/09/13 06:35:13;;;;;;;9.20;5.50;;;17.10;99.90;;;;;;5079995;28;20450;-44
2021/09/13 06:37:41;;;;;;;10.83;4.67;;;17.20;99.90;;;;;;5080039;28;20442;-46
2021/09/13 06:40:09;;;;;;;8.73;4.90;;;17.20;99.90;;;;;;5080021;28;20446;-54
2021/09/13 06:42:35;;;;;;;6.43;5.00;;;17.30;99.90;;;;;;5078910;28;20454;-44
2021/09/13 06:45:08;;;;;;;5.63;3.90;;;17.40;99.90;;;;;;5078219;28;20531;-42
2021/09/13 06:47:47;;;;;;;6.30;3.33;;;17.50;99.90;;;;;;5078252;28;20454;-50
2021/09/13 06:50:17;;;;;;;3.77;3.40;;;17.50;99.90;;;;;;5078168;28;20435;-48
2021/09/13 06:52:45;;;;;;;12.60;5.27;;;17.60;99.90;;;;;;5078453;28;20435;-49
2021/09/13 06:55:12;;;;;;;5.30;4.80;;;17.70;99.90;;;;;;5078211;28;20442;-46
2021/09/13 06:57:39;;;;;;;4.93;3.87;;;17.80;99.90;;;;;;5081174;28;20454;-44
2021/09/13 07:02:43;;;;;;;4.33;3.93;;;17.80;99.90;;;;;;5026533;28;20468;-44
2021/09/13 07:05:11;;;;;;;5.17;4.40;;;17.90;99.90;;;;;;5017969;28;20987;-45
2021/09/13 07:07:45;;;;;;;10.90;5.90;;;17.90;99.90;;;;;;5017809;28;20507;-45
2021/09/13 07:10:16;;;;;;;9.83;4.40;;;17.90;99.90;;;;;;5018019;28;20445;-46
2021/09/13 07:12:44;;;;;;;7.33;3.87;;;18.00;99.90;;;;;;5017762;28;20969;-46
2021/09/13 07:15:16;;;;;;;4.43;3.83;;;18.10;99.90;;;;;;5017026;28;20910;-48
2021/09/13 07:17:44;;;;;;;4.33;3.30;;;18.10;99.90;;;;;;5017784;28;20830;-47
2021/09/13 07:20:13;;;;;;;4.80;3.50;;;18.10;99.90;;;;;;5017689;28;20767;-44
2021/09/13 07:22:39;;;;;;;5.90;3.27;;;18.20;99.90;;;;;;5017808;28;20452;-45
2021/09/13 07:25:07;;;;;;;3.03;2.73;;;18.30;99.90;;;;;;5016418;28;20500;-46
2021/09/13 07:27:34;;;;;;;9.00;4.10;;;18.30;99.90;;;;;;5017459;28;20453;-49
2021/09/13 07:30:02;;;;;;;5.10;3.40;;;18.40;99.90;;;;;;5017100;28;20519;-49
2021/09/13 07:32:29;;;;;;;5.67;3.23;;;18.50;99.90;;;;;;5016447;28;20817;-49
2021/09/13 07:34:57;;;;;;;3.07;2.40;;;18.50;99.90;;;;;;5016168;28;20485;-47
2021/09/13 07:37:26;;;;;;;9.00;4.50;;;18.50;99.90;;;;;;5016078;28;20468;-45
2021/09/13 07:39:53;;;;;;;10.37;3.53;;;18.60;99.90;;;;;;5016446;28;20820;-49
2021/09/13 07:42:20;;;;;;;8.33;5.47;;;18.60;99.90;;;;;;5016631;28;20460;-45
2021/09/13 07:44:47;;;;;;;9.50;6.57;;;18.70;99.90;;;;;;5016541;28;20449;-52
2021/09/13 07:47:13;;;;;;;7.97;4.40;;;18.80;99.90;;;;;;5016561;28;20453;-48
2021/09/13 07:49:40;;;;;;;4.60;3.23;;;18.90;99.90;;;;;;5016675;28;20814;-46
2021/09/13 07:52:08;;;;;;;5.30;3.47;;;19.00;99.90;;;;;;5016971;28;20826;-43
2021/09/13 07:54:35;;;;;;;5.40;4.00;;;19.00;99.90;;;;;;5016594;28;20596;-49
2021/09/13 07:57:01;;;;;;;4.63;3.23;;;19.00;99.90;;;;;;5016762;28;20821;-45
2021/09/13 07:59:29;;;;;;;6.23;2.57;;;19.00;99.90;;;;;;5017148;28;20441;-45
2021/09/13 08:01:55;;;;;;;9.53;3.97;;;19.10;99.90;;;;;;5016421;28;20477;-47
2021/09/13 08:04:22;;;;;;;9.50;3.37;;;19.10;99.90;;;;;;5016370;28;20468;-49
2021/09/13 08:06:49;;;;;;;5.87;2.67;;;19.10;99.90;;;;;;5016614;28;20445;-44
2021/09/13 08:09:17;;;;;;;6.30;3.57;;;19.30;99.90;;;;;;5015997;28;21066;-44
2021/09/13 08:11:44;;;;;;;5.60;2.93;;;19.40;99.90;;;;;;5016265;28;20462;-49
2021/09/13 08:14:11;;;;;;;4.40;2.90;;;19.80;99.90;;;;;;5015768;28;21066;-44
2021/09/13 08:16:37;;;;;;;3.67;2.50;;;20.70;99.90;;;;;;5015571;28;20453;-45
2021/09/13 08:19:04;;;;;;;3.67;2.47;;;21.90;99.90;;;;;;5015671;28;20873;-46
2021/09/13 08:21:33;;;;;;;7.53;2.53;;;23.10;99.90;;;;;;5015558;28;20441;-47
2021/09/13 08:24:01;;;;;;;5.40;4.10;;;24.40;99.90;;;;;;5015030;28;20526;-49
2021/09/13 08:26:29;;;;;;;3.33;2.50;;;25.30;99.90;;;;;;5015600;28;20493;-50
2021/09/13 08:28:56;;;;;;;10.73;3.23;;;26.10;99.90;;;;;;5015395;28;20453;-44
2021/09/13 08:31:23;;;;;;;4.43;2.37;;;27.10;99.90;;;;;;5015025;28;20505;-49
2021/09/13 08:33:50;;;;;;;4.67;2.63;;;27.90;99.60;;;;;;5015000;28;20477;-47
2021/09/13 08:36:16;;;;;;;2.90;2.03;;;28.70;94.70;;;;;;5014511;28;20519;-50
2021/09/13 08:38:43;;;;;;;6.07;2.20;;;29.20;90.60;;;;;;5014693;28;20552;-47
2021/09/13 08:41:10;;;;;;;3.23;2.13;;;29.30;88.00;;;;;;5015499;28;20445;-50
2021/09/13 08:43:40;;;;;;;6.73;3.43;;;29.20;85.70;;;;;;5015357;28;20469;-50
2021/09/13 08:46:09;;;;;;;9.07;2.57;;;29.30;84.30;;;;;;5016004;28;20527;-48
2021/09/13 08:48:40;;;;;;;3.70;2.10;;;29.20;83.10;;;;;;5015703;28;20464;-49
2021/09/13 08:51:18;;;;;;;2.90;1.43;;;28.80;83.00;;;;;;5015744;28;20457;-46
2021/09/13 08:53:49;;;;;;;3.00;2.17;;;28.50;82.50;;;;;;5014769;28;21013;-48
2021/09/13 08:56:17;;;;;;;3.00;1.83;;;28.10;83.50;;;;;;5015159;28;20456;-47
2021/09/13 08:58:46;;;;;;;2.70;2.23;;;28.10;85.00;;;;;;5014651;28;20878;-45
2021/09/13 09:01:13;;;;;;;2.40;1.87;;;28.20;84.50;;;;;;5014443;28;20483;-50
2021/09/13 09:03:43;;;;;;;4.57;2.10;;;28.40;84.70;;;;;;5014461;28;20456;-46
2021/09/13 09:06:32;;;;;;;5.10;2.10;;;28.60;82.40;;;;;;5014410;28;20464;-50
2021/09/13 09:09:01;;;;;;;4.23;1.97;;;28.50;81.90;;;;;;5015266;28;20461;-52
2021/09/13 09:11:48;;;;;;;4.33;2.50;;;28.10;82.20;;;;;;5015079;28;20841;-51
2021/09/13 09:14:26;;;;;;;2.47;1.90;;;28.20;82.80;;;;;;5014350;28;20527;-51
2021/09/13 09:16:56;;;;;;;2.40;2.20;;;28.20;81.70;;;;;;5014330;28;20453;-52
2021/09/13 09:19:23;;;;;;;2.50;1.70;;;28.30;81.50;;;;;;5011001;28;20794;-49
2021/09/13 09:21:50;;;;;;;8.40;2.40;;;28.30;79.50;;;;;;5012516;28;20445;-51
2021/09/13 09:24:17;;;;;;;4.03;2.40;;;28.50;81.20;;;;;;5014366;28;20467;-52
2021/09/13 09:27:01;;;;;;;3.20;2.13;;;28.70;78.60;;;;;;5015549;28;20918;-48
2021/09/13 09:29:30;;;;;;;2.23;1.77;;;28.80;79.20;;;;;;5014951;28;20872;-48
2021/09/13 09:31:59;;;;;;;4.43;2.30;;;29.00;80.50;;;;;;5015316;28;20464;-50
2021/09/13 09:34:28;;;;;;;4.13;1.90;;;29.20;77.30;;;;;;5014918;28;20504;-47
2021/09/13 09:37:07;;;;;;;2.10;1.90;;;29.20;77.90;;;;;;5014895;28;20503;-47
2021/09/13 09:39:36;;;;;;;7.80;1.73;;;29.20;77.20;;;;;;5015666;28;20510;-47
2021/09/13 09:42:04;;;;;;;2.40;2.20;;;28.80;79.40;;;;;;5016902;28;20790;-52
2021/09/13 09:44:33;;;;;;;1.87;1.67;;;28.40;79.50;;;;;;5017015;28;20806;-50
2021/09/13 09:47:04;;;;;;;2.40;2.03;;;28.20;80.30;;;;;;5016556;28;20492;-47
2021/09/13 09:49:51;;;;;;;2.63;2.13;;;27.40;82.20;;;;;;5019157;28;20480;-48
2021/09/13 09:52:32;;;;;;;5.33;1.70;;;26.30;85.80;;;;;;5021349;28;20433;-47
2021/09/13 09:55:13;;;;;;;2.50;2.13;;;25.60;90.40;;;;;;5021284;28;20795;-52
2021/09/13 09:57:42;;;;;;;2.93;2.20;;;24.90;91.10;;;;;;5021746;28;20445;-47
2021/09/13 10:00:25;;;;;;;2.10;1.90;;;24.30;93.30;;;;;;5020896;28;20449;-46
2021/09/13 10:02:53;;;;;;;2.30;2.10;;;24.50;94.30;;;;;;5021021;28;20515;-45
2021/09/13 10:05:20;;;;;;;2.40;2.20;;;24.50;94.90;;;;;;5021011;28;20441;-43
2021/09/13 10:07:48;;;;;;;2.80;2.00;;;24.20;95.70;;;;;;5020706;28;20437;-49
2021/09/13 10:10:15;;;;;;;2.87;2.17;;;23.80;97.60;;;;;;5021114;28;20894;-49
2021/09/13 10:12:43;;;;;;;3.50;2.30;;;23.40;99.90;;;;;;5019543;28;20512;-48
2021/09/13 10:15:11;;;;;;;2.90;2.60;;;23.00;99.90;;;;;;5019057;28;20481;-45
2021/09/13 10:17:39;;;;;;;2.77;2.47;;;22.80;99.90;;;;;;5019396;28;20482;-49
2021/09/13 10:20:07;;;;;;;3.27;2.80;;;22.60;99.90;;;;;;5018973;28;20968;-46
2021/09/13 10:22:37;;;;;;;5.80;2.90;;;22.50;99.90;;;;;;5018846;28;20587;-53
2021/09/13 10:25:06;;;;;;;3.10;2.80;;;22.40;99.90;;;;;;5018784;28;20940;-49
2021/09/13 10:27:35;;;;;;;3.37;2.53;;;22.30;99.90;;;;;;5017587;28;20457;-44
2021/09/13 10:30:22;;;;;;;6.00;2.37;;;22.10;99.90;;;;;;5017728;28;20544;-50
2021/09/13 10:32:51;;;;;;;2.43;2.13;;;21.90;99.90;;;;;;5017380;28;20464;-45
2021/09/13 10:35:39;;;;;;;3.00;2.33;;;22.60;99.90;;;;;;5017194;28;20476;-46
2021/09/13 10:38:08;;;;;;;2.23;2.00;;;23.10;99.90;;;;;;5017571;28;20461;-43
2021/09/13 10:40:40;;;;;;;2.50;2.10;;;23.10;99.90;;;;;;5017208;28;20452;-45
2021/09/13 10:43:18;;;;;;;4.37;2.43;;;23.40;99.90;;;;;;5017249;28;20762;-47
2021/09/13 10:45:44;;;;;;;3.10;2.50;;;23.50;99.90;;;;;;5016942;28;20460;-44
2021/09/13 10:48:13;;;;;;;3.67;2.80;;;23.70;99.90;;;;;;5017228;28;20841;-50
2021/09/13 10:50:46;;;;;;;2.47;2.10;;;23.80;99.90;;;;;;5016608;28;20464;-46
2021/09/13 10:53:37;;;;;;;4.13;2.30;;;23.50;99.90;;;;;;5017213;28;20829;-48
2021/09/13 10:56:22;;;;;;;2.30;2.10;;;23.10;99.90;;;;;;5016508;28;20484;-45
2021/09/13 10:58:53;;;;;;;2.53;2.20;;;22.80;99.90;;;;;;5017232;28;20429;-46
2021/09/13 11:01:26;;;;;;;3.17;2.30;;;22.70;99.90;;;;;;5006147;28;20481;-49
2021/09/13 11:03:57;;;;;;;5.50;3.57;;;22.60;99.90;;;;;;4998304;28;20446;-50
2021/09/13 11:06:39;;;;;;;3.03;2.20;;;22.50;99.90;;;;;;4998833;28;20899;-46
2021/09/13 11:09:09;;;;;;;4.20;2.77;;;22.40;99.90;;;;;;4998529;28;20549;-50
2021/09/13 11:11:38;;;;;;;4.20;2.63;;;22.30;99.90;;;;;;4998309;28;20466;-47
2021/09/13 11:14:06;;;;;;;6.30;2.77;;;22.20;99.90;;;;;;4998882;28;20457;-49
2021/09/13 11:16:35;;;;;;;3.07;2.00;;;22.10;99.90;;;;;;4997238;28;20521;-48
2021/09/13 11:19:08;;;;;;;3.97;2.23;;;22.00;99.90;;;;;;4997902;28;20461;-51
2021/09/13 11:21:36;;;;;;;2.50;2.10;;;21.90;99.90;;;;;;5003880;28;20520;-49
2021/09/13 11:24:06;;;;;;;3.50;2.40;;;21.70;99.90;;;;;;5004151;28;20441;-45
2021/09/13 11:26:36;;;;;;;2.37;2.17;;;21.50;99.90;;;;;;4996069;28;20464;-47
2021/09/13 11:44:53;;;;;;;7.83;3.40;;;21.60;99.90;;;;;;5565924;22;20499;-52
2021/09/13 11:47:32;;;;;;;3.53;3.20;;;21.80;99.90;;;;;;5029571;28;20440;-45
2021/09/13 11:50:05;;;;;;;4.90;2.80;;;22.00;99.90;;;;;;5039358;28;20446;-44
2021/09/13 11:52:32;;;;;;;2.80;2.30;;;22.10;99.90;;;;;;5018937;28;20531;-44
2021/09/13 11:55:02;;;;;;;4.07;2.47;;;22.10;99.90;;;;;;5021441;28;20519;-44
2021/09/13 11:57:32;;;;;;;3.23;2.27;;;22.10;99.90;;;;;;5035478;28;20774;-44
2021/09/13 12:00:04;;;;;;;4.70;2.10;;;21.90;99.90;;;;;;5015321;28;20449;-47
2021/09/13 12:25:48;;;;;;;3.60;2.90;;;22.10;99.90;;;;;;5800402;22;20492;-43
2021/09/13 12:28:20;;;;;;;3.40;2.97;;;22.10;99.90;;;;;;5036538;28;20459;-47
2021/09/13 12:30:53;;;;;;;2.40;2.20;;;22.10;99.90;;;;;;5036231;28;20769;-47
2021/09/13 12:33:20;;;;;;;3.20;2.40;;;22.10;99.90;;;;;;5036721;28;20554;-45
2021/09/13 12:35:49;;;;;;;3.87;2.70;;;22.10;99.90;;;;;;5036837;28;20533;-44
2021/09/13 12:38:18;;;;;;;4.37;2.70;;;21.90;99.90;;;;;;5036923;28;20781;-45
2021/09/13 12:40:55;;;;;;;3.60;3.17;;;21.90;99.90;;;;;;5037543;28;20459;-45
2021/09/13 12:43:24;;;;;;;2.87;2.27;;;22.00;99.90;;;;;;5037517;28;20444;-43
2021/09/13 12:46:04;;;;;;;5.80;2.10;;;22.00;99.90;;;;;;5035557;28;20504;-46
2021/09/13 12:48:32;;;;;;;4.53;3.33;;;22.20;99.90;;;;;;5016091;28;20552;-48
2021/09/13 12:51:00;;;;;;;3.13;2.63;;;22.20;99.90;;;;;;5015396;28;20457;-45
2021/09/13 12:53:29;;;;;;;3.90;2.97;;;22.20;99.90;;;;;;5015431;28;20503;-46
2021/09/13 12:55:59;;;;;;;9.40;3.03;;;22.20;99.90;;;;;;5015842;28;20476;-47
2021/09/13 12:58:31;;;;;;;4.30;3.00;;;22.10;99.90;;;;;;5015964;28;20500;-48
2021/09/13 13:01:00;;;;;;;3.10;2.80;;;22.00;99.90;;;;;;5031495;28;20494;-48
2021/09/13 13:03:28;;;;;;;3.47;2.40;;;21.90;99.90;;;;;;5056646;28;20463;-44
2021/09/13 13:05:55;;;;;;;4.10;1.77;;;21.70;99.90;;;;;;5055298;28;20479;-42
2021/09/13 13:08:23;;;;;;;3.57;2.60;;;21.50;99.90;;;;;;5073482;28;20427;-45
2021/09/13 13:10:51;;;;;;;5.20;2.43;;;21.40;99.90;;;;;;5076940;28;20431;-50
2021/09/13 13:13:20;;;;;;;3.60;2.73;;;21.30;99.90;;;;;;5077075;28;20434;-46
2021/09/13 13:15:47;;;;;;;3.70;2.60;;;21.20;99.90;;;;;;5076248;28;20494;-50
2021/09/13 13:18:18;;;;;;;3.57;2.70;;;21.20;99.90;;;;;;5077073;28;20423;-42
2021/09/13 13:20:45;;;;;;;4.67;2.77;;;21.20;99.90;;;;;;5076924;28;20454;-48
2021/09/13 13:23:13;;;;;;;8.70;3.20;;;21.20;99.90;;;;;;5076166;28;20427;-48
2021/09/13 13:25:41;;;;;;;5.90;2.97;;;21.30;99.90;;;;;;5076758;28;20447;-47
2021/09/13 13:28:08;;;;;;;6.63;3.50;;;21.20;99.90;;;;;;5076720;28;20423;-45
2021/09/13 13:30:36;;;;;;;2.60;2.20;;;21.20;99.90;;;;;;5077078;28;20423;-45
2021/09/13 13:33:06;;;;;;;2.50;2.20;;;21.20;99.90;;;;;;5076604;28;20446;-44